Time,TemperatureF,DewpointF,PressureIn,WindDirection,WindDirectionDegrees,WindSpeedMPH,WindSpeedGustMPH,Humidity,HourlyPrecipIn,Conditions,Clouds,dailyrainin,SoftwareType,DateUTC
2013-08-15 00:04:00,72.2,68.1,30.07,SSE,161,2.0,6.0,87,0.00,,,0.00,WeatherCatV1.15B25,2013-08-15 10:04:00,
2013-08-15 00:09:00,72.2,68.1,30.06,SSE,162,6.0,7.0,87,0.00,,,0.00,WeatherCatV1.15B25,2013-08-15 10:09:00,
2013-08-15 00:14:00,72.2,67.8,30.06,SSE,150,1.0,4.0,86,0.00,,,0.00,WeatherCatV1.15B25,2013-08-15 10:14:00,
2013-08-15 00:19:00,72.1,67.7,30.06,SSE,149,5.0,5.0,86,0.00,,,0.00,WeatherCatV1.15B25,2013-08-15 10:19:00,
2013-08-15 00:24:00,72.1,67.7,30.06,SSE,149,4.0,7.0,86,0.00,,,0.00,WeatherCatV1.15B25,2013-08-15 10:24:00,
2013-08-15 00:29:00,72.1,68.0,30.06,SE,142,2.0,6.0,87,0.00,,,0.00,WeatherCatV1.15B25,2013-08-15 10:29:00,
2013-08-15 00:34:00,72.1,68.0,30.06,SE,145,7.0,9.0,87,0.00,,,0.00,WeatherCatV1.15B25,2013-08-15 10:34:00,
2013-08-15 00:39:00,72.2,68.1,30.06,SSE,159,8.0,8.0,87,0.00,,,0.00,WeatherCatV1.15B25,2013-08-15 10:39:00,
2013-08-15 00:44:00,72.2,67.8,30.05,SSE,159,5.0,6.0,86,0.00,,,0.00,WeatherCatV1.15B25,2013-08-15 10:44:00,
2013-08-15 00:49:00,72.2,67.8,30.06,SSE,147,2.0,4.0,86,0.00,,,0.00,WeatherCatV1.15B25,2013-08-15 10:49:00,
2013-08-15 00:54:00,72.2,67.8,30.05,SSE,150,4.0,9.0,86,0.00,,,0.00,WeatherCatV1.15B25,2013-08-15 10:54:00,
2013-08-15 00:59:00,72.2,67.8,30.05,SSE,154,0.0,7.0,86,0.00,,,0.00,WeatherCatV1.15B25,2013-08-15 10:59:00,
2013-08-15 01:04:00,72.2,67.4,30.05,SE,136,2.0,5.0,85,0.00,,,0.00,WeatherCatV1.15B25,2013-08-15 11:04:00,
2013-08-15 01:09:00,72.3,67.9,30.05,South,175,4.0,5.0,86,0.00,,,0.00,WeatherCatV1.15B25,2013-08-15 11:09:00,
2013-08-15 01:14:00,72.3,67.9,30.05,South,178,4.0,5.0,86,0.00,,,0.00,WeatherCatV1.15B25,2013-08-15 11:14:00,
2013-08-15 01:19:00,72.3,67.9,30.05,South,178,5.0,8.0,86,0.00,,,0.00,WeatherCatV1.15B25,2013-08-15 11:19:00,
2013-08-15 01:23:00,72.3,67.9,30.05,South,178,2.0,5.0,86,0.00,,,0.00,WeatherCatV1.15B25,2013-08-15 11:23:00,
2013-08-15 01:28:00,72.3,67.9,30.04,SSE,164,0.0,4.0,86,0.00,,,0.00,WeatherCatV1.15B25,2013-08-15 11:28:00,
2013-08-15 01:33:00,72.2,67.8,30.04,SSE,155,4.0,6.0,86,0.00,,,0.00,WeatherCatV1.15B25,2013-08-15 11:33:00,
2013-08-15 01:38:00,72.2,68.1,30.04,SSE,153,1.0,5.0,87,0.00,,,0.00,WeatherCatV1.15B25,2013-08-15 11:38:00,
2013-08-15 01:43:00,72.3,68.5,30.04,SSE,154,4.0,10.0,88,0.00,,,0.00,WeatherCatV1.15B25,2013-08-15 11:43:00,
2013-08-15 01:48:00,72.3,68.5,30.04,South,186,5.0,6.0,88,0.00,,,0.00,WeatherCatV1.15B25,2013-08-15 11:48:00,
2013-08-15 01:53:00,72.3,68.5,30.04,SSE,154,5.0,6.0,88,0.00,,,0.00,WeatherCatV1.15B25,2013-08-15 11:53:00,
2013-08-15 01:58:00,72.2,68.1,30.04,SSE,155,1.0,5.0,87,0.00,,,0.00,WeatherCatV1.15B25,2013-08-15 11:58:00,
2013-08-15 02:03:00,72.2,68.4,30.03,SSE,150,0.0,8.0,88,0.00,,,0.00,WeatherCatV1.15B25,2013-08-15 12:03:00,
2013-08-15 02:08:00,72.2,68.4,30.03,SE,139,4.0,7.0,88,0.00,,,0.00,WeatherCatV1.15B25,2013-08-15 12:08:00,
2013-08-15 02:13:00,72.2,68.4,30.03,SSE,150,5.0,7.0,88,0.00,,,0.00,WeatherCatV1.15B25,2013-08-15 12:13:00,
2013-08-15 02:18:00,72.2,68.4,30.03,SSE,154,2.0,5.0,88,0.00,,,0.00,WeatherCatV1.15B25,2013-08-15 12:18:00,
2013-08-15 02:23:00,72.3,68.9,30.03,SSE,149,4.0,5.0,89,0.00,,,0.00,WeatherCatV1.15B25,2013-08-15 12:23:00,
2013-08-15 02:28:00,72.3,68.9,30.03,SSE,149,4.0,6.0,89,0.00,,,0.00,WeatherCatV1.15B25,2013-08-15 12:28:00,
2013-08-15 02:33:00,72.3,68.9,30.03,SE,146,2.0,8.0,89,0.00,,,0.00,WeatherCatV1.15B25,2013-08-15 12:33:00,
2013-08-15 02:38:00,72.4,69.0,30.03,SSE,167,4.0,5.0,89,0.00,,,0.00,WeatherCatV1.15B25,2013-08-15 12:38:00,
2013-08-15 02:43:00,72.4,69.0,30.03,South,171,1.0,7.0,89,0.00,,,0.00,WeatherCatV1.15B25,2013-08-15 12:43:00,
2013-08-15 02:48:00,72.3,68.9,30.03,South,169,2.0,5.0,89,0.00,,,0.00,WeatherCatV1.15B25,2013-08-15 12:48:00,
2013-08-15 02:53:00,72.3,68.9,30.03,SSE,168,4.0,4.0,89,0.00,,,0.00,WeatherCatV1.15B25,2013-08-15 12:53:00,
2013-08-15 02:58:00,72.2,68.8,30.02,SE,146,4.0,8.0,89,0.00,,,0.00,WeatherCatV1.15B25,2013-08-15 12:58:00,
2013-08-15 03:03:00,72.1,68.7,30.02,SE,144,5.0,7.0,89,0.00,,,0.00,WeatherCatV1.15B25,2013-08-15 13:03:00,
2013-08-15 03:08:00,72.0,68.9,30.02,SSE,153,5.0,6.0,90,0.00,,,0.00,WeatherCatV1.15B25,2013-08-15 13:08:00,
2013-08-15 03:13:00,71.9,68.8,30.02,SSE,147,5.0,7.0,90,0.00,,,0.00,WeatherCatV1.15B25,2013-08-15 13:13:00,
2013-08-15 03:18:00,71.9,68.5,30.02,SSE,159,2.0,5.0,89,0.00,,,0.00,WeatherCatV1.15B25,2013-08-15 13:18:00,
2013-08-15 03:23:00,71.8,68.4,30.02,SSE,161,4.0,8.0,89,0.00,,,0.00,WeatherCatV1.15B25,2013-08-15 13:23:00,
2013-08-15 03:28:00,71.9,68.5,30.02,South,176,4.0,6.0,89,0.00,,,0.00,WeatherCatV1.15B25,2013-08-15 13:28:00,
2013-08-15 03:33:00,71.8,68.4,30.02,SSE,147,8.0,8.0,89,0.00,,,0.00,WeatherCatV1.15B25,2013-08-15 13:33:00,
2013-08-15 03:38:00,71.8,68.4,30.02,South,177,0.0,5.0,89,0.00,,,0.00,WeatherCatV1.15B25,2013-08-15 13:38:00,
2013-08-15 03:43:00,71.9,68.5,30.02,South,177,0.0,1.0,89,0.00,,,0.00,WeatherCatV1.15B25,2013-08-15 13:43:00,
2013-08-15 03:48:00,71.8,68.4,30.02,South,173,0.0,1.0,89,0.00,,,0.00,WeatherCatV1.15B25,2013-08-15 13:48:00,
2013-08-15 03:53:00,71.8,68.4,30.02,SSE,149,6.0,6.0,89,0.00,,,0.00,WeatherCatV1.15B25,2013-08-15 13:53:00,
2013-08-15 03:58:00,71.8,68.7,30.02,SSE,157,0.0,4.0,90,0.00,,,0.00,WeatherCatV1.15B25,2013-08-15 13:58:00,
2013-08-15 04:03:00,71.8,68.4,30.02,SSE,157,0.0,4.0,89,0.00,,,0.00,WeatherCatV1.15B25,2013-08-15 14:03:00,
2013-08-15 04:08:00,71.8,68.4,30.02,SSE,157,4.0,5.0,89,0.00,,,0.00,WeatherCatV1.15B25,2013-08-15 14:08:00,
2013-08-15 04:13:00,71.9,68.8,30.02,SSE,155,0.0,2.0,90,0.00,,,0.00,WeatherCatV1.15B25,2013-08-15 14:13:00,
2013-08-15 04:18:00,71.9,68.8,30.02,SSE,154,0.0,5.0,90,0.00,,,0.00,WeatherCatV1.15B25,2013-08-15 14:18:00,
2013-08-15 04:23:00,71.8,68.7,30.02,SSE,152,0.0,8.0,90,0.00,,,0.00,WeatherCatV1.15B25,2013-08-15 14:23:00,
2013-08-15 04:28:00,71.8,68.7,30.02,SSE,153,1.0,1.0,90,0.00,,,0.00,WeatherCatV1.15B25,2013-08-15 14:28:00,
2013-08-15 04:33:00,71.6,68.5,30.02,SSE,153,0.0,5.0,90,0.00,,,0.00,WeatherCatV1.15B25,2013-08-15 14:33:00,
2013-08-15 04:38:00,71.5,68.4,30.02,South,180,0.0,7.0,90,0.00,,,0.00,WeatherCatV1.15B25,2013-08-15 14:38:00,
2013-08-15 04:43:00,71.4,68.3,30.02,South,180,0.0,3.0,90,0.00,,,0.00,WeatherCatV1.15B25,2013-08-15 14:43:00,
2013-08-15 04:48:00,71.3,68.2,30.02,South,180,0.0,3.0,90,0.00,,,0.00,WeatherCatV1.15B25,2013-08-15 14:48:00,
2013-08-15 04:53:00,71.3,68.2,30.02,South,179,0.0,1.0,90,0.00,,,0.00,WeatherCatV1.15B25,2013-08-15 14:53:00,
2013-08-15 04:58:00,71.3,68.2,30.02,South,169,6.0,6.0,90,0.00,,,0.00,WeatherCatV1.15B25,2013-08-15 14:58:00,
2013-08-15 05:03:00,71.3,68.2,30.02,SSE,167,0.0,4.0,90,0.00,,,0.00,WeatherCatV1.15B25,2013-08-15 15:03:00,
2013-08-15 05:08:00,71.3,68.2,30.02,SSE,167,2.0,4.0,90,0.00,,,0.00,WeatherCatV1.15B25,2013-08-15 15:08:00,
2013-08-15 05:13:00,71.3,68.2,30.02,SSE,167,2.0,5.0,90,0.00,,,0.00,WeatherCatV1.15B25,2013-08-15 15:13:00,
2013-08-15 05:18:00,71.3,68.2,30.02,SSE,162,2.0,7.0,90,0.00,,,0.00,WeatherCatV1.15B25,2013-08-15 15:18:00,
2013-08-15 05:23:00,71.3,68.5,30.02,SSE,167,4.0,4.0,91,0.00,,,0.00,WeatherCatV1.15B25,2013-08-15 15:23:00,
2013-08-15 05:28:00,71.3,68.2,30.03,SSE,167,0.0,6.0,90,0.00,,,0.00,WeatherCatV1.15B25,2013-08-15 15:28:00,
2013-08-15 05:33:00,71.3,68.2,30.03,South,171,0.0,8.0,90,0.00,,,0.00,WeatherCatV1.15B25,2013-08-15 15:33:00,
2013-08-15 05:38:00,71.3,68.2,30.03,South,173,0.0,5.0,90,0.00,,,0.00,WeatherCatV1.15B25,2013-08-15 15:38:00,
2013-08-15 05:43:00,71.3,68.2,30.03,South,185,3.0,5.0,90,0.00,,,0.00,WeatherCatV1.15B25,2013-08-15 15:43:00,
2013-08-15 05:48:00,71.3,68.2,30.03,South,185,2.0,3.0,90,0.00,,,0.00,WeatherCatV1.15B25,2013-08-15 15:48:00,
2013-08-15 05:53:00,71.3,68.2,30.03,South,185,0.0,3.0,90,0.00,,,0.00,WeatherCatV1.15B25,2013-08-15 15:53:00,
2013-08-15 05:58:00,71.3,68.5,30.03,South,180,3.0,5.0,91,0.00,,,0.00,WeatherCatV1.15B25,2013-08-15 15:58:00,
2013-08-15 06:03:00,71.4,68.6,30.03,South,180,3.0,3.0,91,0.00,,,0.00,WeatherCatV1.15B25,2013-08-15 16:03:00,
2013-08-15 06:08:00,71.3,68.2,30.03,South,180,3.0,3.0,90,0.00,,,0.00,WeatherCatV1.15B25,2013-08-15 16:08:00,
2013-08-15 06:13:00,71.4,68.6,30.03,South,180,0.0,4.0,91,0.00,,,0.00,WeatherCatV1.15B25,2013-08-15 16:13:00,
2013-08-15 06:18:00,71.4,68.6,30.03,South,178,0.0,5.0,91,0.00,,,0.00,WeatherCatV1.15B25,2013-08-15 16:18:00,
2013-08-15 06:23:00,71.5,68.7,30.03,South,178,1.0,4.0,91,0.00,,,0.00,WeatherCatV1.15B25,2013-08-15 16:23:00,
2013-08-15 06:28:00,71.6,68.8,30.03,SSE,157,0.0,4.0,91,0.00,,,0.00,WeatherCatV1.15B25,2013-08-15 16:28:00,
2013-08-15 06:33:00,71.8,69.0,30.04,SSE,155,4.0,4.0,91,0.00,,,0.00,WeatherCatV1.15B25,2013-08-15 16:33:00,
2013-08-15 06:38:00,71.9,69.1,30.04,SSE,157,0.0,6.0,91,0.00,,,0.00,WeatherCatV1.15B25,2013-08-15 16:38:00,
2013-08-15 06:43:00,72.1,69.3,30.04,SE,146,4.0,9.0,91,0.00,,,0.00,WeatherCatV1.15B25,2013-08-15 16:43:00,
2013-08-15 06:48:00,72.3,69.2,30.04,SSE,153,0.0,4.0,90,0.00,,,0.00,WeatherCatV1.15B25,2013-08-15 16:48:00,
2013-08-15 06:53:00,72.6,69.5,30.04,SSE,151,8.0,8.0,90,0.00,,,0.00,WeatherCatV1.15B25,2013-08-15 16:53:00,
2013-08-15 06:58:00,73.0,69.6,30.04,SSE,159,0.0,5.0,89,0.00,,,0.00,WeatherCatV1.15B25,2013-08-15 16:58:00,
2013-08-15 07:03:00,73.3,69.9,30.04,SSE,155,2.0,7.0,89,0.00,,,0.00,WeatherCatV1.15B25,2013-08-15 17:03:00,
2013-08-15 07:08:00,73.7,69.9,30.05,SSE,150,2.0,8.0,88,0.00,,,0.00,WeatherCatV1.15B25,2013-08-15 17:08:00,
2013-08-15 07:13:00,74.1,70.3,30.05,SSE,150,2.0,5.0,88,0.00,,,0.00,WeatherCatV1.15B25,2013-08-15 17:13:00,
2013-08-15 07:18:00,74.6,70.5,30.05,SSE,164,2.0,7.0,87,0.00,,,0.00,WeatherCatV1.15B25,2013-08-15 17:18:00,
2013-08-15 07:23:00,74.9,70.4,30.05,South,174,2.0,4.0,86,0.00,,,0.00,WeatherCatV1.15B25,2013-08-15 17:23:00,
2013-08-15 07:28:00,75.1,70.3,30.05,South,171,0.0,5.0,85,0.00,,,0.00,WeatherCatV1.15B25,2013-08-15 17:28:00,
2013-08-15 07:33:00,75.3,70.5,30.06,South,173,0.0,4.0,85,0.00,,,0.00,WeatherCatV1.15B25,2013-08-15 17:33:00,
2013-08-15 07:38:00,75.5,70.7,30.05,South,177,5.0,6.0,85,0.00,,,0.00,WeatherCatV1.15B25,2013-08-15 17:38:00,
2013-08-15 07:43:00,75.8,71.0,30.06,South,169,0.0,7.0,85,0.00,,,0.00,WeatherCatV1.15B25,2013-08-15 17:43:00,
2013-08-15 07:48:00,76.2,71.0,30.06,SSE,154,4.0,7.0,84,0.00,,,0.00,WeatherCatV1.15B25,2013-08-15 17:48:00,
2013-08-15 07:53:00,76.4,70.8,30.06,SSE,149,6.0,6.0,83,0.00,,,0.00,WeatherCatV1.15B25,2013-08-15 17:53:00,
2013-08-15 07:58:00,76.5,70.9,30.06,ESE,108,5.0,7.0,83,0.00,,,0.00,WeatherCatV1.15B25,2013-08-15 17:58:00,
2013-08-15 08:03:00,76.5,70.9,30.06,SSE,161,0.0,5.0,83,0.00,,,0.00,WeatherCatV1.15B25,2013-08-15 18:03:00,
2013-08-15 08:08:00,76.5,70.9,30.06,SSE,161,0.0,4.0,83,0.00,,,0.00,WeatherCatV1.15B25,2013-08-15 18:08:00,
2013-08-15 08:13:00,76.5,70.9,30.06,SE,145,1.0,7.0,83,0.00,,,0.00,WeatherCatV1.15B25,2013-08-15 18:13:00,
2013-08-15 08:18:00,76.5,70.9,30.06,SSE,148,8.0,8.0,83,0.00,,,0.00,WeatherCatV1.15B25,2013-08-15 18:18:00,
2013-08-15 08:23:00,76.6,70.7,30.07,SSE,152,4.0,7.0,82,0.00,,,0.00,WeatherCatV1.15B25,2013-08-15 18:23:00,
2013-08-15 08:28:00,76.9,71.0,30.07,ESE,123,0.0,5.0,82,0.00,,,0.00,WeatherCatV1.15B25,2013-08-15 18:28:00,
2013-08-15 08:33:00,77.1,70.8,30.07,ESE,103,7.0,7.0,81,0.00,,,0.00,WeatherCatV1.15B25,2013-08-15 18:33:00,
2013-08-15 08:38:00,77.1,70.4,30.07,ESE,105,6.0,13.0,80,0.00,,,0.00,WeatherCatV1.15B25,2013-08-15 18:38:00,
2013-08-15 08:43:00,77.2,70.5,30.07,SSE,148,4.0,8.0,80,0.00,,,0.00,WeatherCatV1.15B25,2013-08-15 18:43:00,
2013-08-15 08:48:00,77.3,70.6,30.07,SE,127,4.0,7.0,80,0.00,,,0.00,WeatherCatV1.15B25,2013-08-15 18:48:00,
2013-08-15 08:53:00,77.6,70.9,30.07,SE,144,5.0,9.0,80,0.00,,,0.00,WeatherCatV1.15B25,2013-08-15 18:53:00,
2013-08-15 08:58:00,77.5,70.5,30.07,SSE,150,8.0,10.0,79,0.00,,,0.00,WeatherCatV1.15B25,2013-08-15 18:58:00,
2013-08-15 09:03:00,77.2,70.5,30.07,SE,140,4.0,7.0,80,0.00,,,0.00,WeatherCatV1.15B25,2013-08-15 19:03:00,
2013-08-15 09:04:00,77.2,70.9,30.07,ESE,107,6.0,10.0,81,0.00,,,0.00,WeatherCatV1.15B25,2013-08-15 19:04:00,
2013-08-15 09:09:00,77.5,71.2,30.07,ENE,72,2.0,9.0,81,0.00,,,0.00,WeatherCatV1.15B25,2013-08-15 19:09:00,
2013-08-15 09:14:00,77.6,70.2,30.07,NE,51,2.0,9.0,78,0.00,,,0.00,WeatherCatV1.15B25,2013-08-15 19:14:00,
2013-08-15 09:19:00,77.6,70.2,30.08,ENE,58,3.0,4.0,78,0.00,,,0.00,WeatherCatV1.15B25,2013-08-15 19:19:00,
2013-08-15 09:24:00,77.6,70.2,30.08,ESE,109,0.0,9.0,78,0.00,,,0.00,WeatherCatV1.15B25,2013-08-15 19:24:00,
2013-08-15 09:29:00,78.1,71.4,30.08,ESE,123,6.0,11.0,80,0.00,,,0.00,WeatherCatV1.15B25,2013-08-15 19:29:00,
2013-08-15 09:34:00,78.4,70.6,30.08,ENE,76,0.0,5.0,77,0.00,,,0.00,WeatherCatV1.15B25,2013-08-15 19:34:00,
2013-08-15 09:39:00,78.0,70.2,30.08,East,83,2.0,8.0,77,0.00,,,0.00,WeatherCatV1.15B25,2013-08-15 19:39:00,
2013-08-15 09:44:00,78.3,70.9,30.07,SSE,147,11.0,11.0,78,0.00,,,0.00,WeatherCatV1.15B25,2013-08-15 19:44:00,
2013-08-15 09:49:00,79.2,71.7,30.08,East,87,2.0,11.0,78,0.00,,,0.00,WeatherCatV1.15B25,2013-08-15 19:49:00,
2013-08-15 09:54:00,79.9,72.4,30.08,SSE,162,9.0,10.0,78,0.00,,,0.00,WeatherCatV1.15B25,2013-08-15 19:54:00,
2013-08-15 09:59:00,80.8,71.7,30.08,East,92,6.0,11.0,74,0.00,,,0.00,WeatherCatV1.15B25,2013-08-15 19:59:00,
2013-08-15 10:04:00,81.3,71.8,30.08,East,88,3.0,10.0,73,0.00,,,0.00,WeatherCatV1.15B25,2013-08-15 20:04:00,
2013-08-15 10:09:00,81.5,70.7,30.07,ESE,105,6.0,12.0,70,0.00,,,0.00,WeatherCatV1.15B25,2013-08-15 20:09:00,
2013-08-15 10:14:00,81.5,70.3,30.07,SE,138,9.0,10.0,69,0.00,,,0.00,WeatherCatV1.15B25,2013-08-15 20:14:00,
2013-08-15 10:19:00,81.8,71.9,30.07,ESE,105,1.0,1.0,72,0.00,,,0.00,WeatherCatV1.15B25,2013-08-15 20:19:00,
2013-08-15 10:24:00,82.1,72.2,30.07,East,85,1.0,7.0,72,0.00,,,0.00,WeatherCatV1.15B25,2013-08-15 20:24:00,
2013-08-15 10:29:00,82.7,71.0,30.07,ENE,75,2.0,13.0,68,0.00,,,0.00,WeatherCatV1.15B25,2013-08-15 20:29:00,
2013-08-15 10:34:00,82.2,70.6,30.08,East,90,1.0,11.0,68,0.00,,,0.00,WeatherCatV1.15B25,2013-08-15 20:34:00,
2013-08-15 10:39:00,82.4,71.6,30.08,ENE,65,7.0,12.0,70,0.00,,,0.00,WeatherCatV1.15B25,2013-08-15 20:39:00,
2013-08-15 10:44:00,82.8,72.4,30.08,SSE,157,10.0,10.0,71,0.00,,,0.00,WeatherCatV1.15B25,2013-08-15 20:44:00,
2013-08-15 10:49:00,83.1,72.3,30.08,East,88,8.0,8.0,70,0.00,,,0.00,WeatherCatV1.15B25,2013-08-15 20:49:00,
2013-08-15 10:54:00,82.4,72.4,30.08,East,84,0.0,6.0,72,0.00,,,0.00,WeatherCatV1.15B25,2013-08-15 20:54:00,
2013-08-15 10:59:00,82.1,72.6,30.08,ENE,57,2.0,8.0,73,0.00,,,0.00,WeatherCatV1.15B25,2013-08-15 20:59:00,
2013-08-15 11:04:00,81.7,72.2,30.08,ENE,71,0.0,8.0,73,0.00,,,0.00,WeatherCatV1.15B25,2013-08-15 21:04:00,
2013-08-15 11:09:00,81.1,71.2,30.08,East,84,2.0,4.0,72,0.00,,,0.00,WeatherCatV1.15B25,2013-08-15 21:09:00,
2013-08-15 11:14:00,80.9,72.2,30.08,ESE,113,6.0,11.0,75,0.00,,,0.00,WeatherCatV1.15B25,2013-08-15 21:14:00,
2013-08-15 11:19:00,82.0,72.1,30.07,ENE,65,8.0,11.0,72,0.00,,,0.00,WeatherCatV1.15B25,2013-08-15 21:19:00,
2013-08-15 11:24:00,82.6,72.2,30.07,SE,124,2.0,11.0,71,0.00,,,0.00,WeatherCatV1.15B25,2013-08-15 21:24:00,
2013-08-15 11:29:00,83.1,72.3,30.07,East,87,11.0,13.0,70,0.00,,,0.00,WeatherCatV1.15B25,2013-08-15 21:29:00,
2013-08-15 11:34:00,83.6,71.9,30.07,East,91,13.0,13.0,68,0.00,,,0.00,WeatherCatV1.15B25,2013-08-15 21:34:00,
2013-08-15 11:39:00,83.5,71.8,30.06,ENE,66,7.0,11.0,68,0.00,,,0.00,WeatherCatV1.15B25,2013-08-15 21:39:00,
2013-08-15 11:44:00,83.3,71.2,30.06,ENE,68,0.0,11.0,67,0.00,,,0.00,WeatherCatV1.15B25,2013-08-15 21:44:00,
2013-08-15 11:49:00,83.3,72.0,30.06,ENE,74,2.0,8.0,69,0.00,,,0.00,WeatherCatV1.15B25,2013-08-15 21:49:00,
2013-08-15 11:54:00,83.0,71.8,30.06,SE,136,4.0,14.0,69,0.00,,,0.00,WeatherCatV1.15B25,2013-08-15 21:54:00,
2013-08-15 11:59:00,83.3,72.0,30.06,ESE,120,9.0,16.0,69,0.00,,,0.00,WeatherCatV1.15B25,2013-08-15 21:59:00,
2013-08-15 12:04:00,83.4,71.7,30.06,ENE,59,0.0,15.0,68,0.00,,,0.00,WeatherCatV1.15B25,2013-08-15 22:04:00,
2013-08-15 12:09:00,83.8,71.2,30.06,East,89,2.0,11.0,66,0.00,,,0.00,WeatherCatV1.15B25,2013-08-15 22:09:00,
2013-08-15 12:14:00,84.0,70.5,30.06,East,82,2.0,8.0,64,0.00,,,0.00,WeatherCatV1.15B25,2013-08-15 22:14:00,
2013-08-15 12:19:00,83.9,70.8,30.05,East,88,2.0,11.0,65,0.00,,,0.00,WeatherCatV1.15B25,2013-08-15 22:19:00,
2013-08-15 12:24:00,83.4,70.8,30.05,ESE,122,5.0,12.0,66,0.00,,,0.00,WeatherCatV1.15B25,2013-08-15 22:24:00,
2013-08-15 12:29:00,83.0,71.8,30.05,NE,49,2.0,11.0,69,0.00,,,0.00,WeatherCatV1.15B25,2013-08-15 22:29:00,
2013-08-15 12:34:00,83.3,72.5,30.06,ENE,69,7.0,13.0,70,0.00,,,0.00,WeatherCatV1.15B25,2013-08-15 22:34:00,
2013-08-15 12:39:00,83.1,72.3,30.05,SE,128,6.0,15.0,70,0.00,,,0.00,WeatherCatV1.15B25,2013-08-15 22:39:00,
2013-08-15 12:44:00,83.0,71.3,30.05,East,88,4.0,9.0,68,0.00,,,0.00,WeatherCatV1.15B25,2013-08-15 22:44:00,
2013-08-15 12:49:00,82.9,70.8,30.05,South,188,6.0,12.0,67,0.00,,,0.00,WeatherCatV1.15B25,2013-08-15 22:49:00,
2013-08-15 12:54:00,83.7,72.4,30.05,ESE,123,8.0,14.0,69,0.00,,,0.00,WeatherCatV1.15B25,2013-08-15 22:54:00,
2013-08-15 12:59:00,83.1,70.5,30.05,East,99,6.0,12.0,66,0.00,,,0.00,WeatherCatV1.15B25,2013-08-15 22:59:00,
2013-08-15 13:04:00,83.6,72.3,30.05,SSE,157,10.0,11.0,69,0.00,,,0.00,WeatherCatV1.15B25,2013-08-15 23:04:00,
2013-08-15 13:09:00,83.7,72.8,30.05,ESE,102,13.0,13.0,70,0.00,,,0.00,WeatherCatV1.15B25,2013-08-15 23:09:00,
2013-08-15 13:14:00,84.3,73.0,30.06,East,101,8.0,12.0,69,0.00,,,0.00,WeatherCatV1.15B25,2013-08-15 23:14:00,
2013-08-15 13:19:00,84.6,72.8,30.05,East,101,2.0,12.0,68,0.00,,,0.00,WeatherCatV1.15B25,2013-08-15 23:19:00,
2013-08-15 13:24:00,83.6,72.3,30.05,ENE,77,12.0,12.0,69,0.00,,,0.00,WeatherCatV1.15B25,2013-08-15 23:24:00,
2013-08-15 13:29:00,82.3,71.5,30.05,ESE,120,6.0,11.0,70,0.00,,,0.00,WeatherCatV1.15B25,2013-08-15 23:29:00,
2013-08-15 13:34:00,81.7,71.8,30.05,SSE,161,2.0,5.0,72,0.00,,,0.00,WeatherCatV1.15B25,2013-08-15 23:34:00,
2013-08-15 13:39:00,81.8,71.9,30.05,ENE,76,8.0,11.0,72,0.00,,,0.00,WeatherCatV1.15B25,2013-08-15 23:39:00,
2013-08-15 13:44:00,81.3,71.4,30.05,ENE,69,3.0,14.0,72,0.00,,,0.00,WeatherCatV1.15B25,2013-08-15 23:44:00,
2013-08-15 13:49:00,81.2,72.1,30.05,ESE,118,8.0,11.0,74,0.00,,,0.00,WeatherCatV1.15B25,2013-08-15 23:49:00,
2013-08-15 13:54:00,81.6,72.1,30.05,ENE,71,4.0,11.0,73,0.00,,,0.00,WeatherCatV1.15B25,2013-08-15 23:54:00,
2013-08-15 13:59:00,81.9,71.5,30.04,ESE,110,5.0,10.0,71,0.00,,,0.00,WeatherCatV1.15B25,2013-08-15 23:59:00,
2013-08-15 14:04:00,82.7,72.3,30.04,NE,49,4.0,11.0,71,0.00,,,0.00,WeatherCatV1.15B25,2013-08-16 00:04:00,
2013-08-15 14:09:00,82.6,71.4,30.03,East,86,5.0,11.0,69,0.00,,,0.00,WeatherCatV1.15B25,2013-08-16 00:09:00,
2013-08-15 14:14:00,82.3,71.9,30.03,SE,144,5.0,6.0,71,0.00,,,0.00,WeatherCatV1.15B25,2013-08-16 00:14:00,
2013-08-15 14:19:00,82.8,72.4,30.03,ENE,65,6.0,13.0,71,0.00,,,0.00,WeatherCatV1.15B25,2013-08-16 00:19:00,
2013-08-15 14:24:00,83.3,72.5,30.03,NE,38,0.0,3.0,70,0.00,,,0.00,WeatherCatV1.15B25,2013-08-16 00:24:00,
2013-08-15 14:29:00,83.7,72.4,30.03,East,87,3.0,14.0,69,0.00,,,0.00,WeatherCatV1.15B25,2013-08-16 00:29:00,
2013-08-15 14:34:00,84.2,71.6,30.03,East,80,3.0,11.0,66,0.00,,,0.00,WeatherCatV1.15B25,2013-08-16 00:34:00,
2013-08-15 14:39:00,83.8,71.2,30.03,ESE,107,6.0,12.0,66,0.00,,,0.00,WeatherCatV1.15B25,2013-08-16 00:39:00,
2013-08-15 14:44:00,84.1,71.9,30.03,ESE,109,6.0,13.0,67,0.00,,,0.00,WeatherCatV1.15B25,2013-08-16 00:44:00,
2013-08-15 14:49:00,84.0,71.8,30.03,SSE,158,8.0,12.0,67,0.00,,,0.00,WeatherCatV1.15B25,2013-08-16 00:49:00,
2013-08-15 14:54:00,83.6,71.5,30.03,SE,135,12.0,14.0,67,0.00,,,0.00,WeatherCatV1.15B25,2013-08-16 00:54:00,
2013-08-15 14:59:00,83.2,70.2,30.03,SE,134,0.0,18.0,65,0.00,,,0.00,WeatherCatV1.15B25,2013-08-16 00:59:00,
2013-08-15 15:04:00,82.5,70.8,30.02,SSE,153,5.0,9.0,68,0.00,,,0.00,WeatherCatV1.15B25,2013-08-16 01:04:00,
2013-08-15 15:09:00,83.0,70.4,30.02,SSE,165,14.0,17.0,66,0.00,,,0.00,WeatherCatV1.15B25,2013-08-16 01:09:00,
2013-08-15 15:14:00,83.3,70.7,30.02,East,86,8.0,10.0,66,0.00,,,0.00,WeatherCatV1.15B25,2013-08-16 01:14:00,
2013-08-15 15:19:00,83.4,69.5,30.02,SSE,155,5.0,11.0,63,0.00,,,0.00,WeatherCatV1.15B25,2013-08-16 01:19:00,
2013-08-15 15:24:00,83.6,69.2,30.02,ESE,103,8.0,11.0,62,0.00,,,0.00,WeatherCatV1.15B25,2013-08-16 01:24:00,
2013-08-15 15:29:00,83.8,68.9,30.02,SW,217,3.0,11.0,61,0.00,,,0.00,WeatherCatV1.15B25,2013-08-16 01:29:00,
2013-08-15 15:34:00,83.4,69.5,30.02,East,82,3.0,8.0,63,0.00,,,0.00,WeatherCatV1.15B25,2013-08-16 01:34:00,
2013-08-15 15:39:00,83.6,69.6,30.02,ENE,59,8.0,11.0,63,0.00,,,0.00,WeatherCatV1.15B25,2013-08-16 01:39:00,
2013-08-15 15:44:00,83.4,70.4,30.02,SE,138,4.0,10.0,65,0.00,,,0.00,WeatherCatV1.15B25,2013-08-16 01:44:00,
2013-08-15 15:49:00,83.4,70.4,30.02,East,92,5.0,16.0,65,0.00,,,0.00,WeatherCatV1.15B25,2013-08-16 01:49:00,
2013-08-15 15:54:00,83.2,70.2,30.02,East,86,5.0,13.0,65,0.00,,,0.00,WeatherCatV1.15B25,2013-08-16 01:54:00,
2013-08-15 15:59:00,82.5,70.0,30.02,East,82,3.0,11.0,66,0.00,,,0.00,WeatherCatV1.15B25,2013-08-16 01:59:00,
2013-08-15 16:04:00,81.6,70.0,30.02,SE,140,6.0,12.0,68,0.00,,,0.00,WeatherCatV1.15B25,2013-08-16 02:04:00,
2013-08-15 16:09:00,81.7,70.5,30.02,SE,142,12.0,14.0,69,0.00,,,0.00,WeatherCatV1.15B25,2013-08-16 02:09:00,
2013-08-15 16:14:00,81.6,69.6,30.02,ESE,105,5.0,10.0,67,0.00,,,0.00,WeatherCatV1.15B25,2013-08-16 02:14:00,
2013-08-15 16:19:00,81.4,70.2,30.02,ESE,119,7.0,9.0,69,0.00,,,0.00,WeatherCatV1.15B25,2013-08-16 02:19:00,
2013-08-15 16:24:00,81.4,69.8,30.02,SE,138,2.0,11.0,68,0.00,,,0.00,WeatherCatV1.15B25,2013-08-16 02:24:00,
2013-08-15 16:29:00,81.4,69.8,30.02,SE,138,0.0,16.0,68,0.00,,,0.00,WeatherCatV1.15B25,2013-08-16 02:29:00,
2013-08-15 16:34:00,81.6,70.0,30.02,NE,52,8.0,14.0,68,0.00,,,0.00,WeatherCatV1.15B25,2013-08-16 02:34:00,
2013-08-15 16:39:00,81.0,69.4,30.02,ESE,123,5.0,9.0,68,0.00,,,0.00,WeatherCatV1.15B25,2013-08-16 02:39:00,
2013-08-15 16:44:00,80.7,70.0,30.02,SSE,156,0.0,6.0,70,0.00,,,0.00,WeatherCatV1.15B25,2013-08-16 02:44:00,
2013-08-15 16:49:00,80.6,69.9,30.02,East,96,4.0,8.0,70,0.00,,,0.00,WeatherCatV1.15B25,2013-08-16 02:49:00,
2013-08-15 16:54:00,80.3,70.0,30.02,SSE,154,1.0,7.0,71,0.00,,,0.00,WeatherCatV1.15B25,2013-08-16 02:54:00,
2013-08-15 16:59:00,79.9,69.6,30.02,ENE,59,0.0,10.0,71,0.00,,,0.00,WeatherCatV1.15B25,2013-08-16 02:59:00,
2013-08-15 17:04:00,80.1,69.8,30.02,East,99,5.0,5.0,71,0.00,,,0.00,WeatherCatV1.15B25,2013-08-16 03:04:00,
2013-08-15 17:09:00,79.9,69.6,30.02,East,85,5.0,16.0,71,0.00,,,0.00,WeatherCatV1.15B25,2013-08-16 03:09:00,
2013-08-15 17:14:00,79.3,69.9,30.02,South,171,0.0,13.0,73,0.00,,,0.00,WeatherCatV1.15B25,2013-08-16 03:14:00,
2013-08-15 17:19:00,79.4,69.6,30.02,East,94,2.0,8.0,72,0.00,,,0.00,WeatherCatV1.15B25,2013-08-16 03:19:00,
2013-08-15 17:24:00,79.4,70.0,30.02,SE,127,5.0,9.0,73,0.00,,,0.00,WeatherCatV1.15B25,2013-08-16 03:24:00,
2013-08-15 17:29:00,79.1,70.1,30.02,SE,126,6.0,6.0,74,0.00,,,0.00,WeatherCatV1.15B25,2013-08-16 03:29:00,
2013-08-15 17:34:00,78.9,70.3,30.02,East,97,2.0,11.0,75,0.00,,,0.00,WeatherCatV1.15B25,2013-08-16 03:34:00,
2013-08-15 17:39:00,78.5,70.7,30.02,SSE,153,0.0,8.0,77,0.00,,,0.00,WeatherCatV1.15B25,2013-08-16 03:39:00,
2013-08-15 17:44:00,78.0,69.8,30.03,ESE,113,6.0,11.0,76,0.00,,,0.00,WeatherCatV1.15B25,2013-08-16 03:44:00,
2013-08-15 17:49:00,77.6,69.4,30.03,ENE,73,6.0,11.0,76,0.00,,,0.00,WeatherCatV1.15B25,2013-08-16 03:49:00,
2013-08-15 17:54:00,77.3,69.1,30.03,SE,138,2.0,14.0,76,0.00,,,0.00,WeatherCatV1.15B25,2013-08-16 03:54:00,
2013-08-15 17:59:00,77.2,69.8,30.03,SE,135,5.0,10.0,78,0.00,,,0.00,WeatherCatV1.15B25,2013-08-16 03:59:00,
2013-08-15 18:01:00,77.3,69.9,30.03,East,84,4.0,13.0,78,0.00,,,0.00,WeatherCatV1.15B25,2013-08-16 04:01:00,
2013-08-15 18:06:00,77.5,70.1,30.03,SE,140,7.0,7.0,78,0.00,,,0.00,WeatherCatV1.15B25,2013-08-16 04:06:00,
2013-08-15 18:11:00,77.4,70.0,30.03,ESE,113,0.0,13.0,78,0.00,,,0.00,WeatherCatV1.15B25,2013-08-16 04:11:00,
2013-08-15 18:16:00,77.2,69.8,30.03,East,90,1.0,5.0,78,0.00,,,0.00,WeatherCatV1.15B25,2013-08-16 04:16:00,
2013-08-15 18:21:00,77.1,70.1,30.03,ESE,115,4.0,8.0,79,0.00,,,0.00,WeatherCatV1.15B25,2013-08-16 04:21:00,
2013-08-15 18:26:00,77.0,69.6,30.03,East,93,2.0,8.0,78,0.00,,,0.00,WeatherCatV1.15B25,2013-08-16 04:26:00,
2013-08-15 18:31:00,77.0,69.6,30.03,SE,128,7.0,12.0,78,0.00,,,0.00,WeatherCatV1.15B25,2013-08-16 04:31:00,
2013-08-15 18:36:00,76.8,69.4,30.03,ENE,71,0.0,6.0,78,0.00,,,0.00,WeatherCatV1.15B25,2013-08-16 04:36:00,
2013-08-15 18:41:00,76.6,69.2,30.03,ESE,115,6.0,7.0,78,0.00,,,0.00,WeatherCatV1.15B25,2013-08-16 04:41:00,
2013-08-15 18:46:00,76.4,69.4,30.03,South,172,2.0,9.0,79,0.00,,,0.00,WeatherCatV1.15B25,2013-08-16 04:46:00,
2013-08-15 18:51:00,76.2,69.2,30.04,ESE,119,5.0,9.0,79,0.00,,,0.00,WeatherCatV1.15B25,2013-08-16 04:51:00,
2013-08-15 18:56:00,75.9,68.9,30.04,ESE,119,4.0,6.0,79,0.00,,,0.00,WeatherCatV1.15B25,2013-08-16 04:56:00,
2013-08-15 19:01:00,75.8,69.2,30.04,SE,137,0.0,7.0,80,0.00,,,0.00,WeatherCatV1.15B25,2013-08-16 05:01:00,
2013-08-15 19:06:00,75.6,69.0,30.04,SE,136,5.0,11.0,80,0.00,,,0.00,WeatherCatV1.15B25,2013-08-16 05:06:00,
2013-08-15 19:11:00,75.5,69.2,30.04,SSE,147,5.0,9.0,81,0.00,,,0.00,WeatherCatV1.15B25,2013-08-16 05:11:00,
2013-08-15 19:16:00,75.3,69.1,30.04,SE,138,2.0,7.0,81,0.00,,,0.00,WeatherCatV1.15B25,2013-08-16 05:16:00,
2013-08-15 19:19:00,75.1,68.9,30.04,SE,128,5.0,6.0,81,0.00,,,0.00,WeatherCatV1.15B25,2013-08-16 05:19:00,
2013-08-15 19:20:00,75.1,68.9,30.04,SSE,153,2.0,7.0,81,0.00,,,0.00,WeatherCatV1.15B25,2013-08-16 05:20:00,
2013-08-15 19:25:00,75.0,69.1,30.05,ESE,120,0.0,8.0,82,0.00,,,0.00,WeatherCatV1.15B25,2013-08-16 05:25:00,
2013-08-15 19:30:00,74.9,69.0,30.05,ESE,103,0.0,6.0,82,0.00,,,0.00,WeatherCatV1.15B25,2013-08-16 05:30:00,
2013-08-15 19:35:00,74.8,68.9,30.05,SE,132,5.0,7.0,82,0.00,,,0.00,WeatherCatV1.15B25,2013-08-16 05:35:00,
2013-08-15 19:40:00,74.6,68.7,30.05,SE,142,0.0,9.0,82,0.00,,,0.00,WeatherCatV1.15B25,2013-08-16 05:40:00,
2013-08-15 19:45:00,74.5,68.6,30.05,SE,127,4.0,5.0,82,0.00,,,0.00,WeatherCatV1.15B25,2013-08-16 05:45:00,
2013-08-15 19:50:00,74.3,68.8,30.05,ESE,117,2.0,7.0,83,0.00,,,0.00,WeatherCatV1.15B25,2013-08-16 05:50:00,
2013-08-15 19:55:00,74.1,68.6,30.05,SE,142,1.0,8.0,83,0.00,,,0.00,WeatherCatV1.15B25,2013-08-16 05:55:00,
2013-08-15 20:00:00,74.0,68.5,30.06,SE,138,0.0,8.0,83,0.00,,,0.00,WeatherCatV1.15B25,2013-08-16 06:00:00,
2013-08-15 20:05:00,73.9,68.4,30.05,SSE,150,6.0,7.0,83,0.00,,,0.00,WeatherCatV1.15B25,2013-08-16 06:05:00,
2013-08-15 20:10:00,73.8,68.3,30.05,SSE,153,6.0,11.0,83,0.00,,,0.00,WeatherCatV1.15B25,2013-08-16 06:10:00,
2013-08-15 20:15:00,73.7,67.8,30.06,SSE,151,6.0,9.0,82,0.00,,,0.00,WeatherCatV1.15B25,2013-08-16 06:15:00,
2013-08-15 20:20:00,73.7,67.8,30.06,SSE,157,1.0,5.0,82,0.00,,,0.00,WeatherCatV1.15B25,2013-08-16 06:20:00,
2013-08-15 20:25:00,73.6,68.1,30.06,SE,137,1.0,4.0,83,0.00,,,0.00,WeatherCatV1.15B25,2013-08-16 06:25:00,
2013-08-15 20:30:00,73.5,68.0,30.06,SE,145,0.0,10.0,83,0.00,,,0.00,WeatherCatV1.15B25,2013-08-16 06:30:00,
2013-08-15 20:35:00,73.5,68.0,30.06,SE,143,6.0,8.0,83,0.00,,,0.00,WeatherCatV1.15B25,2013-08-16 06:35:00,
2013-08-15 20:40:00,73.5,68.0,30.06,SSE,158,2.0,12.0,83,0.00,,,0.00,WeatherCatV1.15B25,2013-08-16 06:40:00,
2013-08-15 20:45:00,73.5,68.0,30.06,SE,140,4.0,12.0,83,0.00,,,0.00,WeatherCatV1.15B25,2013-08-16 06:45:00,
2013-08-15 20:50:00,73.6,68.1,30.06,SSE,150,6.0,9.0,83,0.00,,,0.00,WeatherCatV1.15B25,2013-08-16 06:50:00,
2013-08-15 20:55:00,73.6,68.1,30.06,SSE,157,4.0,8.0,83,0.00,,,0.00,WeatherCatV1.15B25,2013-08-16 06:55:00,
2013-08-15 21:00:00,73.6,68.1,30.06,South,172,7.0,7.0,83,0.00,,,0.00,WeatherCatV1.15B25,2013-08-16 07:00:00,
2013-08-15 21:05:00,73.7,68.2,30.06,SE,145,9.0,9.0,83,0.00,,,0.00,WeatherCatV1.15B25,2013-08-16 07:05:00,
2013-08-15 21:10:00,73.8,68.7,30.06,SSE,155,6.0,7.0,84,0.00,,,0.00,WeatherCatV1.15B25,2013-08-16 07:10:00,
2013-08-15 21:15:00,73.8,68.7,30.07,SE,143,4.0,9.0,84,0.00,,,0.00,WeatherCatV1.15B25,2013-08-16 07:15:00,
2013-08-15 21:20:00,73.8,68.7,30.07,SE,145,4.0,10.0,84,0.00,,,0.00,WeatherCatV1.15B25,2013-08-16 07:20:00,
2013-08-15 21:25:00,73.6,68.5,30.07,SSE,152,7.0,11.0,84,0.00,,,0.00,WeatherCatV1.15B25,2013-08-16 07:25:00,
2013-08-15 21:30:00,73.7,68.6,30.07,South,170,7.0,12.0,84,0.00,,,0.00,WeatherCatV1.15B25,2013-08-16 07:30:00,
2013-08-15 21:35:00,73.7,68.2,30.07,SE,136,4.0,8.0,83,0.00,,,0.00,WeatherCatV1.15B25,2013-08-16 07:35:00,
2013-08-15 21:40:00,73.8,68.3,30.07,SE,136,0.0,6.0,83,0.00,,,0.00,WeatherCatV1.15B25,2013-08-16 07:40:00,
2013-08-15 21:45:00,73.8,68.3,30.07,SE,142,4.0,6.0,83,0.00,,,0.00,WeatherCatV1.15B25,2013-08-16 07:45:00,
2013-08-15 21:50:00,73.9,68.7,30.08,SSE,147,2.0,10.0,84,0.00,,,0.00,WeatherCatV1.15B25,2013-08-16 07:50:00,
2013-08-15 21:55:00,73.9,68.7,30.08,SSE,147,1.0,6.0,84,0.00,,,0.00,WeatherCatV1.15B25,2013-08-16 07:55:00,
2013-08-15 22:00:00,73.9,68.7,30.08,SE,146,5.0,9.0,84,0.00,,,0.00,WeatherCatV1.15B25,2013-08-16 08:00:00,
2013-08-15 22:05:00,73.8,68.7,30.08,SE,135,1.0,5.0,84,0.00,,,0.00,WeatherCatV1.15B25,2013-08-16 08:05:00,
2013-08-15 22:10:00,73.8,68.7,30.08,SE,140,5.0,5.0,84,0.00,,,0.00,WeatherCatV1.15B25,2013-08-16 08:10:00,
2013-08-15 22:15:00,73.8,68.7,30.08,SSE,153,5.0,7.0,84,0.00,,,0.00,WeatherCatV1.15B25,2013-08-16 08:15:00,
2013-08-15 22:20:00,73.8,69.0,30.08,SE,146,5.0,8.0,85,0.00,,,0.00,WeatherCatV1.15B25,2013-08-16 08:20:00,
2013-08-15 22:25:00,73.6,68.8,30.08,SE,133,4.0,7.0,85,0.00,,,0.00,WeatherCatV1.15B25,2013-08-16 08:25:00,
2013-08-15 22:30:00,73.3,69.2,30.08,SSE,150,7.0,12.0,87,0.00,,,0.00,WeatherCatV1.15B25,2013-08-16 08:30:00,
2013-08-15 22:35:00,73.0,69.2,30.08,SSE,148,4.0,7.0,88,0.00,,,0.00,WeatherCatV1.15B25,2013-08-16 08:35:00,
2013-08-15 22:40:00,72.8,69.4,30.08,SSE,156,5.0,6.0,89,0.00,,,0.01,WeatherCatV1.15B25,2013-08-16 08:40:00,
2013-08-15 22:45:00,72.7,69.3,30.08,South,177,7.0,7.0,89,0.00,,,0.01,WeatherCatV1.15B25,2013-08-16 08:45:00,
2013-08-15 22:50:00,72.5,69.1,30.07,SSE,148,7.0,7.0,89,0.00,,,0.01,WeatherCatV1.15B25,2013-08-16 08:50:00,
2013-08-15 22:55:00,72.4,69.0,30.07,SE,143,6.0,8.0,89,0.00,,,0.01,WeatherCatV1.15B25,2013-08-16 08:55:00,
2013-08-15 23:00:00,72.2,68.8,30.07,SE,134,9.0,9.0,89,0.00,,,0.01,WeatherCatV1.15B25,2013-08-16 09:00:00,
2013-08-15 23:05:00,72.2,69.1,30.07,SSE,152,6.0,8.0,90,0.00,,,0.01,WeatherCatV1.15B25,2013-08-16 09:05:00,
2013-08-15 23:10:00,72.3,69.2,30.07,SE,146,0.0,9.0,90,0.00,,,0.01,WeatherCatV1.15B25,2013-08-16 09:10:00,
2013-08-15 23:15:00,72.3,69.2,30.07,SSE,148,0.0,5.0,90,0.00,,,0.01,WeatherCatV1.15B25,2013-08-16 09:15:00,
2013-08-15 23:20:00,72.3,68.9,30.08,SE,146,2.0,10.0,89,0.00,,,0.01,WeatherCatV1.15B25,2013-08-16 09:20:00,
2013-08-15 23:25:00,72.4,69.0,30.07,SE,139,7.0,14.0,89,0.00,,,0.01,WeatherCatV1.15B25,2013-08-16 09:25:00,
2013-08-15 23:30:00,72.4,69.0,30.08,SE,146,7.0,8.0,89,0.00,,,0.01,WeatherCatV1.15B25,2013-08-16 09:30:00,
2013-08-15 23:35:00,72.4,69.0,30.07,SE,129,11.0,13.0,89,0.00,,,0.01,WeatherCatV1.15B25,2013-08-16 09:35:00,
2013-08-15 23:40:00,72.5,69.1,30.07,SSE,153,5.0,8.0,89,0.00,,,0.01,WeatherCatV1.15B25,2013-08-16 09:40:00,
2013-08-15 23:45:00,72.4,69.0,30.07,SE,135,4.0,5.0,89,0.00,,,0.01,WeatherCatV1.15B25,2013-08-16 09:45:00,
2013-08-15 23:50:00,72.4,69.0,30.07,SE,142,5.0,11.0,89,0.00,,,0.01,WeatherCatV1.15B25,2013-08-16 09:50:00,
2013-08-15 23:55:00,72.4,69.0,30.07,SSE,162,8.0,8.0,89,0.00,,,0.01,WeatherCatV1.15B25,2013-08-16 09:55:00,